sensor_id;sensor_type;location;lat;lon;timestamp;pressure;altitude;pressure_sealevel;temperature;humidity
10646;BME280;5371;49.782;9.932;2022-08-16T00:00:25;98887.91;;;19.48;67.24
10646;BME280;5371;49.782;9.932;2022-08-16T00:02:56;98889.34;;;19.34;67.65
10646;BME280;5371;49.782;9.932;2022-08-16T00:05:25;98900.25;;;19.23;68.64
10646;BME280;5371;49.782;9.932;2022-08-16T00:07:53;98909.19;;;19.22;68.55
10646;BME280;5371;49.782;9.932;2022-08-16T00:10:24;98913.31;;;19.09;68.65
10646;BME280;5371;49.782;9.932;2022-08-16T00:12:52;98920.88;;;18.87;69.19
10646;BME280;5371;49.782;9.932;2022-08-16T00:15:23;98928.34;;;18.92;69.66
10646;BME280;5371;49.782;9.932;2022-08-16T00:17:51;98923.91;;;19.00;69.20
10646;BME280;5371;49.782;9.932;2022-08-16T00:20:19;98928.53;;;19.06;68.62
10646;BME280;5371;49.782;9.932;2022-08-16T00:22:49;98927.56;;;19.08;68.92
10646;BME280;5371;49.782;9.932;2022-08-16T00:25:18;98922.97;;;18.76;70.03
10646;BME280;5371;49.782;9.932;2022-08-16T00:27:52;98921.22;;;18.92;69.36
10646;BME280;5371;49.782;9.932;2022-08-16T00:30:21;98926.16;;;18.87;69.70
10646;BME280;5371;49.782;9.932;2022-08-16T00:32:53;98924.38;;;18.96;69.30
10646;BME280;5371;49.782;9.932;2022-08-16T00:35:24;98932.28;;;18.88;69.34
10646;BME280;5371;49.782;9.932;2022-08-16T00:37:55;98924.44;;;18.70;70.02
10646;BME280;5371;49.782;9.932;2022-08-16T00:40:28;98922.31;;;18.65;70.47
10646;BME280;5371;49.782;9.932;2022-08-16T00:42:59;98927.66;;;18.82;69.62
10646;BME280;5371;49.782;9.932;2022-08-16T00:45:34;98925.25;;;18.62;70.35
10646;BME280;5371;49.782;9.932;2022-08-16T00:48:04;98930.44;;;18.72;70.23
10646;BME280;5371;49.782;9.932;2022-08-16T00:50:34;98924.75;;;18.67;70.44
10646;BME280;5371;49.782;9.932;2022-08-16T00:53:02;98929.75;;;18.70;70.77
10646;BME280;5371;49.782;9.932;2022-08-16T00:55:30;98926.44;;;18.76;70.36
10646;BME280;5371;49.782;9.932;2022-08-16T00:58:02;98929.63;;;18.80;70.32
10646;BME280;5371;49.782;9.932;2022-08-16T01:00:36;98932.53;;;18.60;71.10
10646;BME280;5371;49.782;9.932;2022-08-16T01:03:07;98930.41;;;18.64;71.21
10646;BME280;5371;49.782;9.932;2022-08-16T01:05:35;98933.72;;;18.66;70.78
10646;BME280;5371;49.782;9.932;2022-08-16T01:08:05;98932.16;;;18.55;70.66
10646;BME280;5371;49.782;9.932;2022-08-16T01:10:35;98930.31;;;18.48;71.20
10646;BME280;5371;49.782;9.932;2022-08-16T01:13:09;98929.38;;;18.57;70.86
10646;BME280;5371;49.782;9.932;2022-08-16T01:15:44;98935.91;;;18.45;70.86
10646;BME280;5371;49.782;9.932;2022-08-16T01:18:16;98936.56;;;18.47;71.39
10646;BME280;5371;49.782;9.932;2022-08-16T01:20:51;98939.69;;;18.42;71.63
10646;BME280;5371;49.782;9.932;2022-08-16T01:23:28;98941.50;;;18.42;71.30
10646;BME280;5371;49.782;9.932;2022-08-16T01:26:00;98943.69;;;18.46;71.37
10646;BME280;5371;49.782;9.932;2022-08-16T01:28:29;98942.50;;;18.49;71.08
10646;BME280;5371;49.782;9.932;2022-08-16T01:30:58;98943.88;;;18.53;71.54
10646;BME280;5371;49.782;9.932;2022-08-16T01:33:27;98947.41;;;18.61;71.67
10646;BME280;5371;49.782;9.932;2022-08-16T01:35:58;98946.28;;;18.64;71.57
10646;BME280;5371;49.782;9.932;2022-08-16T01:38:29;98949.69;;;18.56;71.72
10646;BME280;5371;49.782;9.932;2022-08-16T01:41:02;98938.50;;;18.62;71.79
10646;BME280;5371;49.782;9.932;2022-08-16T01:43:33;98935.31;;;18.59;71.73
10646;BME280;5371;49.782;9.932;2022-08-16T01:46:09;98944.84;;;18.52;71.91
10646;BME280;5371;49.782;9.932;2022-08-16T01:48:48;98934.66;;;18.57;71.81
10646;BME280;5371;49.782;9.932;2022-08-16T01:51:20;98936.47;;;18.56;71.42
10646;BME280;5371;49.782;9.932;2022-08-16T01:53:58;98938.88;;;18.50;72.06
10646;BME280;5371;49.782;9.932;2022-08-16T01:56:31;98943.53;;;18.48;72.35
10646;BME280;5371;49.782;9.932;2022-08-16T01:59:09;98939.22;;;18.47;72.17
10646;BME280;5371;49.782;9.932;2022-08-16T02:01:38;98943.97;;;18.43;72.08
10646;BME280;5371;49.782;9.932;2022-08-16T02:04:05;98946.31;;;18.46;72.21
10646;BME280;5371;49.782;9.932;2022-08-16T02:06:34;98935.38;;;18.41;72.30
10646;BME280;5371;49.782;9.932;2022-08-16T02:09:06;98940.25;;;18.54;71.57
10646;BME280;5371;49.782;9.932;2022-08-16T02:11:40;98935.31;;;18.33;72.21
10646;BME280;5371;49.782;9.932;2022-08-16T02:14:09;98942.06;;;18.53;71.91
10646;BME280;5371;49.782;9.932;2022-08-16T02:16:39;98940.16;;;18.38;73.38
10646;BME280;5371;49.782;9.932;2022-08-16T02:19:10;98940.66;;;18.41;73.36
10646;BME280;5371;49.782;9.932;2022-08-16T02:21:38;98942.44;;;18.32;73.26
10646;BME280;5371;49.782;9.932;2022-08-16T02:24:08;98947.38;;;18.27;73.35
10646;BME280;5371;49.782;9.932;2022-08-16T02:26:39;98946.34;;;18.20;73.42
10646;BME280;5371;49.782;9.932;2022-08-16T02:29:07;98953.22;;;18.13;73.94
10646;BME280;5371;49.782;9.932;2022-08-16T02:31:37;98947.06;;;18.05;74.43
10646;BME280;5371;49.782;9.932;2022-08-16T02:34:06;98949.53;;;18.06;74.64
10646;BME280;5371;49.782;9.932;2022-08-16T02:36:38;98941.75;;;18.05;74.67
10646;BME280;5371;49.782;9.932;2022-08-16T02:39:08;98939.13;;;18.05;74.60
10646;BME280;5371;49.782;9.932;2022-08-16T02:41:41;98945.81;;;18.17;74.23
10646;BME280;5371;49.782;9.932;2022-08-16T02:44:11;98947.63;;;18.16;74.30
10646;BME280;5371;49.782;9.932;2022-08-16T02:46:41;98947.94;;;18.13;74.07
10646;BME280;5371;49.782;9.932;2022-08-16T02:49:09;98935.34;;;18.07;74.65
10646;BME280;5371;49.782;9.932;2022-08-16T02:51:37;98936.22;;;17.90;75.37
10646;BME280;5371;49.782;9.932;2022-08-16T02:54:06;98943.28;;;18.07;74.53
10646;BME280;5371;49.782;9.932;2022-08-16T02:56:36;98941.84;;;17.95;74.90
10646;BME280;5371;49.782;9.932;2022-08-16T02:59:08;98942.53;;;17.97;74.81
10646;BME280;5371;49.782;9.932;2022-08-16T03:01:38;98936.69;;;17.68;75.77
10646;BME280;5371;49.782;9.932;2022-08-16T03:04:13;98943.69;;;17.77;75.65
10646;BME280;5371;49.782;9.932;2022-08-16T03:06:41;98937.22;;;17.71;75.72
10646;BME280;5371;49.782;9.932;2022-08-16T03:09:19;98935.03;;;17.67;75.29
10646;BME280;5371;49.782;9.932;2022-08-16T03:11:52;98935.22;;;17.65;76.19
10646;BME280;5371;49.782;9.932;2022-08-16T03:14:27;98938.34;;;17.69;76.18
10646;BME280;5371;49.782;9.932;2022-08-16T03:17:24;98940.06;;;17.60;76.60
10646;BME280;5371;49.782;9.932;2022-08-16T03:20:01;98947.38;;;17.48;76.66
10646;BME280;5371;49.782;9.932;2022-08-16T03:22:51;98943.34;;;17.36;77.03
10646;BME280;5371;49.782;9.932;2022-08-16T03:25:18;98943.56;;;17.43;76.68
10646;BME280;5371;49.782;9.932;2022-08-16T03:28:08;98931.09;;;17.35;76.69
10646;BME280;5371;49.782;9.932;2022-08-16T03:30:39;98929.72;;;17.31;76.85
10646;BME280;5371;49.782;9.932;2022-08-16T03:33:12;98929.44;;;17.16;77.25
10646;BME280;5371;49.782;9.932;2022-08-16T03:35:49;98925.75;;;17.27;76.60
10646;BME280;5371;49.782;9.932;2022-08-16T03:38:25;98936.53;;;17.16;77.08
10646;BME280;5371;49.782;9.932;2022-08-16T03:40:55;98924.22;;;17.07;77.40
10646;BME280;5371;49.782;9.932;2022-08-16T03:43:29;98924.91;;;17.09;77.99
10646;BME280;5371;49.782;9.932;2022-08-16T03:46:04;98927.34;;;17.20;77.48
10646;BME280;5371;49.782;9.932;2022-08-16T03:48:40;98927.41;;;17.10;77.75
10646;BME280;5371;49.782;9.932;2022-08-16T03:51:17;98920.22;;;17.03;78.50
10646;BME280;5371;49.782;9.932;2022-08-16T03:53:53;98928.13;;;17.03;78.02
10646;BME280;5371;49.782;9.932;2022-08-16T03:56:24;98937.72;;;17.04;78.19
10646;BME280;5371;49.782;9.932;2022-08-16T03:58:54;98937.88;;;17.02;78.46
10646;BME280;5371;49.782;9.932;2022-08-16T04:01:29;98938.31;;;16.98;78.75
10646;BME280;5371;49.782;9.932;2022-08-16T04:03:59;98930.16;;;16.91;78.88
10646;BME280;5371;49.782;9.932;2022-08-16T04:06:31;98931.44;;;16.87;78.73
10646;BME280;5371;49.782;9.932;2022-08-16T04:08:59;98943.88;;;16.95;78.72
10646;BME280;5371;49.782;9.932;2022-08-16T04:11:28;98948.16;;;16.78;79.03
10646;BME280;5371;49.782;9.932;2022-08-16T04:13:57;98947.31;;;16.77;79.06
10646;BME280;5371;49.782;9.932;2022-08-16T04:16:26;98945.22;;;16.81;79.23
10646;BME280;5371;49.782;9.932;2022-08-16T04:19:09;98951.41;;;16.90;79.07
10646;BME280;5371;49.782;9.932;2022-08-16T04:21:38;98955.59;;;16.65;79.57
10646;BME280;5371;49.782;9.932;2022-08-16T04:24:10;98956.13;;;16.59;79.97
10646;BME280;5371;49.782;9.932;2022-08-16T04:26:38;98956.25;;;16.57;80.21
10646;BME280;5371;49.782;9.932;2022-08-16T04:29:07;98960.31;;;16.61;80.04
10646;BME280;5371;49.782;9.932;2022-08-16T04:31:36;98967.81;;;16.66;79.80
10646;BME280;5371;49.782;9.932;2022-08-16T04:34:11;98972.31;;;16.83;79.07
10646;BME280;5371;49.782;9.932;2022-08-16T04:36:42;98973.13;;;16.83;78.88
10646;BME280;5371;49.782;9.932;2022-08-16T04:39:10;98972.34;;;16.73;79.28
10646;BME280;5371;49.782;9.932;2022-08-16T04:41:38;98977.31;;;16.76;78.72
10646;BME280;5371;49.782;9.932;2022-08-16T04:44:07;98971.88;;;16.78;78.83
10646;BME280;5371;49.782;9.932;2022-08-16T04:46:35;98969.06;;;16.62;79.28
10646;BME280;5371;49.782;9.932;2022-08-16T04:49:03;98968.31;;;16.69;78.95
10646;BME280;5371;49.782;9.932;2022-08-16T04:51:37;98973.28;;;16.82;78.60
10646;BME280;5371;49.782;9.932;2022-08-16T04:54:09;98965.69;;;16.69;79.24
10646;BME280;5371;49.782;9.932;2022-08-16T04:56:38;98974.06;;;16.65;79.28
10646;BME280;5371;49.782;9.932;2022-08-16T04:59:06;98978.50;;;16.64;79.68
10646;BME280;5371;49.782;9.932;2022-08-16T05:01:36;98982.31;;;16.79;78.88
10646;BME280;5371;49.782;9.932;2022-08-16T05:04:04;98988.28;;;16.81;78.81
10646;BME280;5371;49.782;9.932;2022-08-16T05:06:44;98990.22;;;16.79;78.88
10646;BME280;5371;49.782;9.932;2022-08-16T05:09:50;98991.78;;;16.72;78.94
10646;BME280;5371;49.782;9.932;2022-08-16T05:12:18;98989.72;;;16.94;77.95
10646;BME280;5371;49.782;9.932;2022-08-16T05:14:45;98992.06;;;16.69;78.74
10646;BME280;5371;49.782;9.932;2022-08-16T05:17:19;98999.09;;;16.78;78.56
10646;BME280;5371;49.782;9.932;2022-08-16T05:19:48;98988.66;;;16.87;77.70
10646;BME280;5371;49.782;9.932;2022-08-16T05:22:21;98985.69;;;16.99;76.93
10646;BME280;5371;49.782;9.932;2022-08-16T05:24:55;98989.94;;;17.10;76.67
10646;BME280;5371;49.782;9.932;2022-08-16T05:27:31;98992.69;;;16.91;77.39
10646;BME280;5371;49.782;9.932;2022-08-16T05:29:59;98991.94;;;16.98;77.13
10646;BME280;5371;49.782;9.932;2022-08-16T05:32:28;98995.41;;;16.99;77.13
10646;BME280;5371;49.782;9.932;2022-08-16T05:35:03;98999.13;;;17.06;76.91
10646;BME280;5371;49.782;9.932;2022-08-16T05:37:42;98997.09;;;17.17;76.50
10646;BME280;5371;49.782;9.932;2022-08-16T05:40:13;98999.63;;;17.37;75.85
10646;BME280;5371;49.782;9.932;2022-08-16T05:42:42;99006.94;;;17.25;76.13
10646;BME280;5371;49.782;9.932;2022-08-16T05:45:14;99010.63;;;17.32;75.92
10646;BME280;5371;49.782;9.932;2022-08-16T05:47:48;98999.84;;;17.43;75.56
10646;BME280;5371;49.782;9.932;2022-08-16T05:50:20;99001.38;;;17.46;75.44
10646;BME280;5371;49.782;9.932;2022-08-16T05:52:58;99001.88;;;17.49;75.48
10646;BME280;5371;49.782;9.932;2022-08-16T05:55:27;99003.97;;;17.73;74.60
10646;BME280;5371;49.782;9.932;2022-08-16T05:57:58;99009.41;;;17.72;74.74
10646;BME280;5371;49.782;9.932;2022-08-16T06:00:26;99012.13;;;17.80;74.45
10646;BME280;5371;49.782;9.932;2022-08-16T06:02:56;99007.38;;;17.66;74.70
10646;BME280;5371;49.782;9.932;2022-08-16T06:05:45;99005.84;;;17.81;74.41
10646;BME280;5371;49.782;9.932;2022-08-16T06:08:15;99009.69;;;17.86;74.18
10646;BME280;5371;49.782;9.932;2022-08-16T06:10:47;99008.56;;;17.89;73.99
10646;BME280;5371;49.782;9.932;2022-08-16T06:13:23;99017.53;;;17.96;74.10
10646;BME280;5371;49.782;9.932;2022-08-16T06:15:53;99015.03;;;18.12;73.89
10646;BME280;5371;49.782;9.932;2022-08-16T06:18:22;99028.75;;;18.33;73.12
10646;BME280;5371;49.782;9.932;2022-08-16T06:20:52;99014.63;;;18.25;73.04
10646;BME280;5371;49.782;9.932;2022-08-16T06:23:31;99023.25;;;18.53;72.33
10646;BME280;5371;49.782;9.932;2022-08-16T06:26:07;99019.34;;;18.57;72.17
10646;BME280;5371;49.782;9.932;2022-08-16T06:28:43;99014.41;;;18.62;71.77
10646;BME280;5371;49.782;9.932;2022-08-16T06:31:21;99018.97;;;18.86;71.16
10646;BME280;5371;49.782;9.932;2022-08-16T06:33:51;99015.50;;;18.85;71.09
10646;BME280;5371;49.782;9.932;2022-08-16T06:36:35;99017.25;;;19.02;70.62
10646;BME280;5371;49.782;9.932;2022-08-16T06:39:23;99015.28;;;19.13;70.23
10646;BME280;5371;49.782;9.932;2022-08-16T06:42:00;99024.63;;;19.33;69.72
10646;BME280;5371;49.782;9.932;2022-08-16T06:44:50;99021.50;;;19.29;69.92
10646;BME280;5371;49.782;9.932;2022-08-16T06:47:32;99018.88;;;19.46;69.49
10646;BME280;5371;49.782;9.932;2022-08-16T06:50:03;99013.31;;;19.65;69.17
10646;BME280;5371;49.782;9.932;2022-08-16T06:52:39;99023.41;;;19.86;68.38
10646;BME280;5371;49.782;9.932;2022-08-16T06:55:14;99020.44;;;19.89;68.18
10646;BME280;5371;49.782;9.932;2022-08-16T06:57:56;99013.16;;;20.07;67.55
10646;BME280;5371;49.782;9.932;2022-08-16T07:00:26;99013.47;;;20.04;67.97
10646;BME280;5371;49.782;9.932;2022-08-16T07:03:05;99007.38;;;20.11;67.79
10646;BME280;5371;49.782;9.932;2022-08-16T07:05:35;99012.50;;;20.21;67.64
10646;BME280;5371;49.782;9.932;2022-08-16T07:08:23;99018.47;;;20.47;66.69
10646;BME280;5371;49.782;9.932;2022-08-16T07:10:52;99022.22;;;20.61;66.44
10646;BME280;5371;49.782;9.932;2022-08-16T07:13:21;99024.69;;;20.71;66.20
10646;BME280;5371;49.782;9.932;2022-08-16T07:15:48;99024.00;;;20.77;65.79
10646;BME280;5371;49.782;9.932;2022-08-16T07:18:33;99026.97;;;20.90;65.36
10646;BME280;5371;49.782;9.932;2022-08-16T07:21:01;99022.75;;;21.12;64.67
10646;BME280;5371;49.782;9.932;2022-08-16T07:23:31;99014.44;;;21.46;63.35
10646;BME280;5371;49.782;9.932;2022-08-16T07:26:04;99013.31;;;21.86;62.33
10646;BME280;5371;49.782;9.932;2022-08-16T07:28:44;99010.59;;;22.39;60.35
10646;BME280;5371;49.782;9.932;2022-08-16T07:31:16;99018.81;;;22.82;58.71
10646;BME280;5371;49.782;9.932;2022-08-16T07:33:51;99013.69;;;23.31;57.49
10646;BME280;5371;49.782;9.932;2022-08-16T07:36:20;99013.66;;;24.03;55.24
10646;BME280;5371;49.782;9.932;2022-08-16T07:38:53;99017.47;;;24.43;53.48
10646;BME280;5371;49.782;9.932;2022-08-16T07:41:26;99019.44;;;24.28;53.23
10646;BME280;5371;49.782;9.932;2022-08-16T07:44:02;99028.50;;;23.70;55.11
10646;BME280;5371;49.782;9.932;2022-08-16T07:46:32;99018.13;;;23.60;55.10
10646;BME280;5371;49.782;9.932;2022-08-16T07:49:09;99016.78;;;23.49;55.86
10646;BME280;5371;49.782;9.932;2022-08-16T07:51:37;99018.81;;;23.83;55.11
10646;BME280;5371;49.782;9.932;2022-08-16T07:54:08;99017.13;;;24.25;53.92
10646;BME280;5371;49.782;9.932;2022-08-16T07:56:44;99022.56;;;24.94;52.30
10646;BME280;5371;49.782;9.932;2022-08-16T07:59:14;99018.84;;;25.43;50.19
10646;BME280;5371;49.782;9.932;2022-08-16T08:01:49;99014.13;;;25.51;49.96
10646;BME280;5371;49.782;9.932;2022-08-16T08:04:22;99016.22;;;25.02;50.67
10646;BME280;5371;49.782;9.932;2022-08-16T08:06:53;99016.63;;;24.98;50.65
10646;BME280;5371;49.782;9.932;2022-08-16T08:09:22;99017.41;;;24.58;51.92
10646;BME280;5371;49.782;9.932;2022-08-16T08:11:51;99027.44;;;24.90;51.12
10646;BME280;5371;49.782;9.932;2022-08-16T08:14:18;99031.63;;;25.00;50.83
10646;BME280;5371;49.782;9.932;2022-08-16T08:16:47;99026.03;;;25.35;49.69
10646;BME280;5371;49.782;9.932;2022-08-16T08:19:28;99030.19;;;25.51;49.54
10646;BME280;5371;49.782;9.932;2022-08-16T08:21:57;99026.13;;;24.73;51.42
10646;BME280;5371;49.782;9.932;2022-08-16T08:24:34;99029.47;;;24.88;51.53
10646;BME280;5371;49.782;9.932;2022-08-16T08:27:07;99041.69;;;24.97;50.89
10646;BME280;5371;49.782;9.932;2022-08-16T08:29:36;99032.75;;;24.84;51.05
10646;BME280;5371;49.782;9.932;2022-08-16T08:32:06;99038.97;;;24.91;51.28
10646;BME280;5371;49.782;9.932;2022-08-16T08:34:36;99032.44;;;24.93;51.08
10646;BME280;5371;49.782;9.932;2022-08-16T08:37:05;99029.19;;;25.05;50.61
10646;BME280;5371;49.782;9.932;2022-08-16T08:39:35;99031.38;;;25.35;50.03
10646;BME280;5371;49.782;9.932;2022-08-16T08:42:08;99040.28;;;25.02;50.56
10646;BME280;5371;49.782;9.932;2022-08-16T08:44:36;99035.31;;;24.98;50.39
10646;BME280;5371;49.782;9.932;2022-08-16T08:47:07;99034.28;;;24.65;51.73
10646;BME280;5371;49.782;9.932;2022-08-16T08:49:35;99030.75;;;24.58;51.78
10646;BME280;5371;49.782;9.932;2022-08-16T08:52:05;99029.50;;;24.33;52.51
10646;BME280;5371;49.782;9.932;2022-08-16T08:54:33;99029.91;;;24.30;52.85
10646;BME280;5371;49.782;9.932;2022-08-16T08:57:02;99037.16;;;24.36;52.56
10646;BME280;5371;49.782;9.932;2022-08-16T08:59:41;99038.41;;;24.18;52.95
10646;BME280;5371;49.782;9.932;2022-08-16T09:02:18;99029.38;;;24.41;52.77
10646;BME280;5371;49.782;9.932;2022-08-16T09:04:52;99046.03;;;24.71;51.94
10646;BME280;5371;49.782;9.932;2022-08-16T09:07:21;99047.09;;;24.76;51.74
10646;BME280;5371;49.782;9.932;2022-08-16T09:09:48;99045.72;;;24.59;52.18
10646;BME280;5371;49.782;9.932;2022-08-16T09:12:17;99048.19;;;24.54;52.40
10646;BME280;5371;49.782;9.932;2022-08-16T09:14:52;99047.34;;;24.53;52.49
10646;BME280;5371;49.782;9.932;2022-08-16T09:17:23;99056.41;;;24.31;52.96
10646;BME280;5371;49.782;9.932;2022-08-16T09:19:52;99061.56;;;24.11;53.54
10646;BME280;5371;49.782;9.932;2022-08-16T09:22:20;99061.47;;;24.05;53.93
10646;BME280;5371;49.782;9.932;2022-08-16T09:24:52;99055.97;;;24.06;53.33
10646;BME280;5371;49.782;9.932;2022-08-16T09:27:23;99051.25;;;24.08;53.34
10646;BME280;5371;49.782;9.932;2022-08-16T09:29:58;99042.59;;;24.49;52.18
10646;BME280;5371;49.782;9.932;2022-08-16T09:32:26;99052.19;;;24.71;51.81
10646;BME280;5371;49.782;9.932;2022-08-16T09:34:53;99050.16;;;25.01;51.20
10646;BME280;5371;49.782;9.932;2022-08-16T09:37:23;99041.97;;;25.09;50.80
10646;BME280;5371;49.782;9.932;2022-08-16T09:39:50;99046.47;;;25.09;50.49
10646;BME280;5371;49.782;9.932;2022-08-16T09:42:21;99053.47;;;25.10;50.71
10646;BME280;5371;49.782;9.932;2022-08-16T09:44:49;99053.84;;;25.48;49.87
10646;BME280;5371;49.782;9.932;2022-08-16T09:47:21;99052.97;;;26.08;47.72
10646;BME280;5371;49.782;9.932;2022-08-16T09:49:50;99048.03;;;26.77;46.11
10646;BME280;5371;49.782;9.932;2022-08-16T09:52:18;99047.84;;;26.86;45.32
10646;BME280;5371;49.782;9.932;2022-08-16T09:54:46;99044.22;;;27.31;44.46
10646;BME280;5371;49.782;9.932;2022-08-16T09:57:13;99049.25;;;27.52;43.64
10646;BME280;5371;49.782;9.932;2022-08-16T09:59:41;99054.97;;;27.76;43.19
10646;BME280;5371;49.782;9.932;2022-08-16T10:02:08;99054.38;;;27.67;43.20
10646;BME280;5371;49.782;9.932;2022-08-16T10:04:37;99050.31;;;27.89;43.16
10646;BME280;5371;49.782;9.932;2022-08-16T10:07:05;99042.06;;;28.16;42.45
10646;BME280;5371;49.782;9.932;2022-08-16T10:09:34;99035.06;;;28.64;41.27
10646;BME280;5371;49.782;9.932;2022-08-16T10:12:01;99038.72;;;28.27;41.56
10646;BME280;5371;49.782;9.932;2022-08-16T10:14:47;99039.16;;;27.92;42.09
10646;BME280;5371;49.782;9.932;2022-08-16T10:17:14;99027.94;;;27.96;42.39
10646;BME280;5371;49.782;9.932;2022-08-16T10:19:47;99027.22;;;28.13;42.16
10646;BME280;5371;49.782;9.932;2022-08-16T10:22:16;99026.78;;;28.66;41.01
10646;BME280;5371;49.782;9.932;2022-08-16T10:24:43;99019.16;;;29.54;39.55
10646;BME280;5371;49.782;9.932;2022-08-16T10:27:14;99017.13;;;29.68;38.86
10646;BME280;5371;49.782;9.932;2022-08-16T10:29:46;99017.19;;;30.56;37.11
10646;BME280;5371;49.782;9.932;2022-08-16T10:32:14;99012.94;;;30.83;36.60
10646;BME280;5371;49.782;9.932;2022-08-16T10:34:42;99015.75;;;30.88;36.64
10646;BME280;5371;49.782;9.932;2022-08-16T10:37:11;99013.63;;;30.21;36.74
10646;BME280;5371;49.782;9.932;2022-08-16T10:39:38;99011.28;;;30.12;37.25
10646;BME280;5371;49.782;9.932;2022-08-16T10:42:15;99017.63;;;30.30;37.05
10646;BME280;5371;49.782;9.932;2022-08-16T10:44:48;99005.69;;;30.72;36.28
10646;BME280;5371;49.782;9.932;2022-08-16T10:47:16;99012.22;;;31.11;35.04
10646;BME280;5371;49.782;9.932;2022-08-16T10:49:43;99008.28;;;31.31;34.67
10646;BME280;5371;49.782;9.932;2022-08-16T10:52:14;99004.00;;;30.01;36.16
10646;BME280;5371;49.782;9.932;2022-08-16T10:54:41;99002.88;;;30.67;35.91
10646;BME280;5371;49.782;9.932;2022-08-16T10:57:08;99002.06;;;30.32;35.70
10646;BME280;5371;49.782;9.932;2022-08-16T10:59:36;99008.34;;;30.14;36.09
10646;BME280;5371;49.782;9.932;2022-08-16T11:02:04;99012.56;;;29.80;36.31
10646;BME280;5371;49.782;9.932;2022-08-16T11:04:35;99011.59;;;29.63;36.78
10646;BME280;5371;49.782;9.932;2022-08-16T11:07:03;99004.72;;;29.00;37.64
10646;BME280;5371;49.782;9.932;2022-08-16T11:09:33;99012.31;;;28.67;38.38
10646;BME280;5371;49.782;9.932;2022-08-16T11:12:00;99003.16;;;28.25;39.56
10646;BME280;5371;49.782;9.932;2022-08-16T11:14:27;99008.91;;;27.72;40.57
10646;BME280;5371;49.782;9.932;2022-08-16T11:16:54;99018.31;;;26.99;42.41
10646;BME280;5371;49.782;9.932;2022-08-16T11:19:21;99013.16;;;27.04;41.96
10646;BME280;5371;49.782;9.932;2022-08-16T11:21:48;99018.97;;;26.81;42.47
10646;BME280;5371;49.782;9.932;2022-08-16T11:24:16;99014.88;;;26.65;42.95
10646;BME280;5371;49.782;9.932;2022-08-16T11:26:46;99020.81;;;26.80;42.37
10646;BME280;5371;49.782;9.932;2022-08-16T11:29:13;99018.66;;;27.22;41.87
10646;BME280;5371;49.782;9.932;2022-08-16T11:31:40;99015.59;;;27.95;40.43
10646;BME280;5371;49.782;9.932;2022-08-16T11:34:08;99022.81;;;28.93;38.17
10646;BME280;5371;49.782;9.932;2022-08-16T11:36:35;99016.97;;;29.63;36.91
10646;BME280;5371;49.782;9.932;2022-08-16T11:39:03;99022.06;;;29.83;36.56
10646;BME280;5371;49.782;9.932;2022-08-16T11:41:31;99014.50;;;30.68;34.76
10646;BME280;5371;49.782;9.932;2022-08-16T11:44:00;99014.06;;;30.06;35.70
10646;BME280;5371;49.782;9.932;2022-08-16T11:46:27;99010.75;;;29.62;36.32
10646;BME280;5371;49.782;9.932;2022-08-16T11:48:54;99019.31;;;29.41;37.00
10646;BME280;5371;49.782;9.932;2022-08-16T11:51:23;99008.44;;;28.38;38.80
10646;BME280;5371;49.782;9.932;2022-08-16T11:53:50;99013.22;;;28.05;39.78
10646;BME280;5371;49.782;9.932;2022-08-16T11:56:17;99021.34;;;27.98;39.68
10646;BME280;5371;49.782;9.932;2022-08-16T11:58:44;99017.66;;;27.92;40.20
10646;BME280;5371;49.782;9.932;2022-08-16T12:01:13;99016.03;;;27.91;40.04
10646;BME280;5371;49.782;9.932;2022-08-16T12:03:41;99019.91;;;27.64;40.20
10646;BME280;5371;49.782;9.932;2022-08-16T12:06:11;99018.91;;;27.52;40.36
10646;BME280;5371;49.782;9.932;2022-08-16T12:08:42;99015.16;;;27.66;40.40
10646;BME280;5371;49.782;9.932;2022-08-16T12:11:17;99022.09;;;27.36;41.10
10646;BME280;5371;49.782;9.932;2022-08-16T12:13:45;99019.25;;;27.31;40.98
10646;BME280;5371;49.782;9.932;2022-08-16T12:16:15;99024.34;;;27.39;41.28
10646;BME280;5371;49.782;9.932;2022-08-16T12:18:45;99013.84;;;27.37;41.40
10646;BME280;5371;49.782;9.932;2022-08-16T12:21:13;99015.69;;;27.37;41.68
10646;BME280;5371;49.782;9.932;2022-08-16T12:23:40;99012.94;;;27.50;40.99
10646;BME280;5371;49.782;9.932;2022-08-16T12:26:08;99011.94;;;27.44;40.93
10646;BME280;5371;49.782;9.932;2022-08-16T12:28:35;99003.06;;;27.44;40.21
10646;BME280;5371;49.782;9.932;2022-08-16T12:31:03;99000.22;;;27.39;40.79
10646;BME280;5371;49.782;9.932;2022-08-16T12:33:31;99003.28;;;27.42;40.80
10646;BME280;5371;49.782;9.932;2022-08-16T12:35:59;98995.06;;;27.37;40.50
10646;BME280;5371;49.782;9.932;2022-08-16T12:38:27;99002.84;;;27.45;40.44
10646;BME280;5371;49.782;9.932;2022-08-16T12:40:56;99008.97;;;27.59;40.42
10646;BME280;5371;49.782;9.932;2022-08-16T12:43:31;98998.22;;;27.66;39.28
10646;BME280;5371;49.782;9.932;2022-08-16T12:45:59;98996.53;;;27.71;39.08
10646;BME280;5371;49.782;9.932;2022-08-16T12:48:31;98996.53;;;27.71;39.23
10646;BME280;5371;49.782;9.932;2022-08-16T12:51:18;98996.00;;;27.87;39.22
10646;BME280;5371;49.782;9.932;2022-08-16T12:53:48;98991.56;;;28.00;38.88
10646;BME280;5371;49.782;9.932;2022-08-16T12:56:17;98989.59;;;28.20;38.29
10646;BME280;5371;49.782;9.932;2022-08-16T12:58:45;98983.91;;;28.03;38.20
10646;BME280;5371;49.782;9.932;2022-08-16T13:01:17;98990.69;;;27.81;38.33
10646;BME280;5371;49.782;9.932;2022-08-16T13:03:48;98985.44;;;27.61;39.02
10646;BME280;5371;49.782;9.932;2022-08-16T13:06:15;98985.50;;;27.48;39.31
10646;BME280;5371;49.782;9.932;2022-08-16T13:08:42;98984.16;;;27.70;38.99
10646;BME280;5371;49.782;9.932;2022-08-16T13:11:12;98982.22;;;27.77;39.14
10646;BME280;5371;49.782;9.932;2022-08-16T13:13:42;98987.78;;;27.82;38.98
10646;BME280;5371;49.782;9.932;2022-08-16T13:16:09;98976.16;;;27.88;39.19
10646;BME280;5371;49.782;9.932;2022-08-16T13:18:37;98969.59;;;27.84;39.13
10646;BME280;5371;49.782;9.932;2022-08-16T13:21:08;98974.84;;;27.98;38.59
10646;BME280;5371;49.782;9.932;2022-08-16T13:23:36;98971.84;;;27.87;39.07
10646;BME280;5371;49.782;9.932;2022-08-16T13:26:04;98972.72;;;28.06;38.49
10646;BME280;5371;49.782;9.932;2022-08-16T13:28:32;98971.06;;;28.05;38.60
10646;BME280;5371;49.782;9.932;2022-08-16T13:31:00;98964.94;;;28.23;38.28